sensor_id;sensor_type;location;lat;lon;timestamp;pressure;altitude;pressure_sealevel;temperature;humidity
11041;BME280;5573;49.592;8.662;2022-10-22T00:02:19;99510.53;;;15.96;100.00
11041;BME280;5573;49.592;8.662;2022-10-22T00:05:10;99499.53;;;15.89;100.00
11041;BME280;5573;49.592;8.662;2022-10-22T00:07:57;99487.31;;;15.87;100.00
11041;BME280;5573;49.592;8.662;2022-10-22T00:10:45;99480.38;;;15.98;100.00
11041;BME280;5573;49.592;8.662;2022-10-22T00:13:33;99475.88;;;16.04;100.00
11041;BME280;5573;49.592;8.662;2022-10-22T00:16:21;99485.56;;;15.96;100.00
11041;BME280;5573;49.592;8.662;2022-10-22T00:19:09;99497.22;;;15.88;100.00
11041;BME280;5573;49.592;8.662;2022-10-22T00:22:00;99499.78;;;15.98;100.00
11041;BME280;5573;49.592;8.662;2022-10-22T00:24:51;99495.00;;;15.99;100.00
11041;BME280;5573;49.592;8.662;2022-10-22T00:27:39;99507.88;;;15.89;100.00
11041;BME280;5573;49.592;8.662;2022-10-22T00:30:27;99513.00;;;15.91;100.00
11041;BME280;5573;49.592;8.662;2022-10-22T00:33:15;99516.34;;;16.02;100.00
11041;BME280;5573;49.592;8.662;2022-10-22T00:36:03;99510.72;;;16.05;100.00
11041;BME280;5573;49.592;8.662;2022-10-22T00:38:53;99509.66;;;15.99;100.00
11041;BME280;5573;49.592;8.662;2022-10-22T00:41:41;99518.34;;;15.81;100.00
11041;BME280;5573;49.592;8.662;2022-10-22T00:45:02;99535.69;;;15.85;100.00
11041;BME280;5573;49.592;8.662;2022-10-22T00:47:54;99552.97;;;15.93;100.00
11041;BME280;5573;49.592;8.662;2022-10-22T00:50:47;99491.59;;;15.68;100.00
11041;BME280;5573;49.592;8.662;2022-10-22T00:53:38;99534.78;;;15.92;100.00
11041;BME280;5573;49.592;8.662;2022-10-22T00:56:29;99539.19;;;15.90;100.00
11041;BME280;5573;49.592;8.662;2022-10-22T00:59:17;99542.84;;;15.83;100.00
11041;BME280;5573;49.592;8.662;2022-10-22T01:02:05;99555.22;;;15.78;100.00
11041;BME280;5573;49.592;8.662;2022-10-22T01:04:53;99554.03;;;15.79;100.00
11041;BME280;5573;49.592;8.662;2022-10-22T01:07:43;99547.06;;;15.68;100.00
11041;BME280;5573;49.592;8.662;2022-10-22T01:10:44;99530.41;;;15.68;100.00
11041;BME280;5573;49.592;8.662;2022-10-22T01:13:48;99545.88;;;15.69;100.00
11041;BME280;5573;49.592;8.662;2022-10-22T01:16:46;99540.06;;;15.59;100.00
11041;BME280;5573;49.592;8.662;2022-10-22T01:19:56;99546.09;;;15.54;100.00
11041;BME280;5573;49.592;8.662;2022-10-22T01:22:56;99536.09;;;15.60;100.00
11041;BME280;5573;49.592;8.662;2022-10-22T01:25:49;99540.69;;;15.71;100.00
11041;BME280;5573;49.592;8.662;2022-10-22T01:28:53;99539.66;;;15.61;100.00
11041;BME280;5573;49.592;8.662;2022-10-22T01:31:45;99546.09;;;15.54;100.00
11041;BME280;5573;49.592;8.662;2022-10-22T01:34:37;99543.88;;;15.45;100.00
11041;BME280;5573;49.592;8.662;2022-10-22T01:37:29;99539.88;;;15.47;100.00
11041;BME280;5573;49.592;8.662;2022-10-22T01:40:20;99538.97;;;15.53;100.00
11041;BME280;5573;49.592;8.662;2022-10-22T01:43:10;99552.47;;;15.51;100.00
11041;BME280;5573;49.592;8.662;2022-10-22T01:46:02;99549.28;;;15.29;100.00
11041;BME280;5573;49.592;8.662;2022-10-22T01:49:02;99552.66;;;15.40;100.00
11041;BME280;5573;49.592;8.662;2022-10-22T01:52:00;99550.75;;;15.37;100.00
11041;BME280;5573;49.592;8.662;2022-10-22T01:54:52;99551.75;;;15.47;100.00
11041;BME280;5573;49.592;8.662;2022-10-22T01:57:43;99548.22;;;15.19;100.00
11041;BME280;5573;49.592;8.662;2022-10-22T02:00:39;99555.06;;;15.38;100.00
11041;BME280;5573;49.592;8.662;2022-10-22T02:03:38;99549.97;;;15.37;100.00
11041;BME280;5573;49.592;8.662;2022-10-22T02:06:29;99535.38;;;15.33;100.00
11041;BME280;5573;49.592;8.662;2022-10-22T02:09:20;99526.63;;;15.34;100.00
11041;BME280;5573;49.592;8.662;2022-10-22T02:12:10;99533.56;;;15.22;100.00
11041;BME280;5573;49.592;8.662;2022-10-22T02:14:59;99547.41;;;15.22;100.00
11041;BME280;5573;49.592;8.662;2022-10-22T02:17:50;99552.31;;;15.11;100.00
11041;BME280;5573;49.592;8.662;2022-10-22T02:20:41;99507.72;;;14.78;100.00
11041;BME280;5573;49.592;8.662;2022-10-22T02:23:29;99552.69;;;15.13;100.00
11041;BME280;5573;49.592;8.662;2022-10-22T02:26:21;99546.25;;;15.20;100.00
11041;BME280;5573;49.592;8.662;2022-10-22T02:29:14;99529.69;;;15.16;100.00
11041;BME280;5573;49.592;8.662;2022-10-22T02:32:07;99524.25;;;15.09;100.00
11041;BME280;5573;49.592;8.662;2022-10-22T02:34:56;99525.16;;;15.02;100.00
11041;BME280;5573;49.592;8.662;2022-10-22T02:37:48;99514.47;;;15.01;100.00
11041;BME280;5573;49.592;8.662;2022-10-22T02:40:36;99508.53;;;15.02;100.00
11041;BME280;5573;49.592;8.662;2022-10-22T02:43:25;99505.84;;;14.99;100.00
11041;BME280;5573;49.592;8.662;2022-10-22T02:46:15;99496.09;;;14.87;100.00
11041;BME280;5573;49.592;8.662;2022-10-22T02:49:03;99425.16;;;14.42;100.00
11041;BME280;5573;49.592;8.662;2022-10-22T02:51:51;99503.28;;;14.84;100.00
11041;BME280;5573;49.592;8.662;2022-10-22T02:54:40;99489.66;;;14.94;100.00
11041;BME280;5573;49.592;8.662;2022-10-22T02:57:28;99482.06;;;14.74;100.00
11041;BME280;5573;49.592;8.662;2022-10-22T03:00:16;99486.28;;;14.82;100.00
11041;BME280;5573;49.592;8.662;2022-10-22T03:03:04;99483.41;;;14.90;100.00
11041;BME280;5573;49.592;8.662;2022-10-22T03:05:52;99482.72;;;14.82;100.00
11041;BME280;5573;49.592;8.662;2022-10-22T03:08:40;99486.44;;;14.72;100.00
11041;BME280;5573;49.592;8.662;2022-10-22T03:11:29;99489.06;;;14.82;100.00
11041;BME280;5573;49.592;8.662;2022-10-22T03:14:17;99484.34;;;14.79;100.00
11041;BME280;5573;49.592;8.662;2022-10-22T03:17:05;99494.63;;;14.79;100.00
11041;BME280;5573;49.592;8.662;2022-10-22T03:19:53;99493.75;;;14.86;100.00
11041;BME280;5573;49.592;8.662;2022-10-22T03:22:42;99505.47;;;14.97;100.00
11041;BME280;5573;49.592;8.662;2022-10-22T03:25:31;99489.72;;;14.90;100.00
11041;BME280;5573;49.592;8.662;2022-10-22T03:28:21;99485.56;;;14.78;100.00
11041;BME280;5573;49.592;8.662;2022-10-22T03:31:09;99493.75;;;14.86;100.00
11041;BME280;5573;49.592;8.662;2022-10-22T03:33:57;99503.69;;;14.83;100.00
11041;BME280;5573;49.592;8.662;2022-10-22T03:36:45;99486.84;;;14.70;100.00
11041;BME280;5573;49.592;8.662;2022-10-22T03:39:35;99501.81;;;14.76;100.00
11041;BME280;5573;49.592;8.662;2022-10-22T03:42:23;99497.56;;;14.95;100.00
11041;BME280;5573;49.592;8.662;2022-10-22T03:45:13;99487.09;;;15.07;100.00
11041;BME280;5573;49.592;8.662;2022-10-22T03:48:01;99508.16;;;15.00;100.00
11041;BME280;5573;49.592;8.662;2022-10-22T03:50:49;99543.13;;;14.91;100.00
11041;BME280;5573;49.592;8.662;2022-10-22T03:53:37;99588.78;;;14.79;100.00
11041;BME280;5573;49.592;8.662;2022-10-22T03:56:25;99609.03;;;14.72;100.00
11041;BME280;5573;49.592;8.662;2022-10-22T03:59:13;99603.91;;;14.71;100.00
11041;BME280;5573;49.592;8.662;2022-10-22T04:02:02;99593.97;;;14.73;100.00
11041;BME280;5573;49.592;8.662;2022-10-22T04:04:50;99602.34;;;14.70;100.00
11041;BME280;5573;49.592;8.662;2022-10-22T04:07:38;99590.16;;;14.63;100.00
11041;BME280;5573;49.592;8.662;2022-10-22T04:10:26;99601.38;;;14.49;100.00
11041;BME280;5573;49.592;8.662;2022-10-22T04:13:14;99586.75;;;14.49;100.00
11041;BME280;5573;49.592;8.662;2022-10-22T04:16:06;99582.38;;;14.51;100.00
11041;BME280;5573;49.592;8.662;2022-10-22T04:18:56;99599.41;;;14.46;100.00
11041;BME280;5573;49.592;8.662;2022-10-22T04:21:44;99599.34;;;14.19;100.00
11041;BME280;5573;49.592;8.662;2022-10-22T04:24:32;99597.28;;;14.27;100.00
11041;BME280;5573;49.592;8.662;2022-10-22T04:27:20;99592.22;;;14.18;100.00
11041;BME280;5573;49.592;8.662;2022-10-22T04:30:09;99602.44;;;14.24;100.00
11041;BME280;5573;49.592;8.662;2022-10-22T04:32:57;99599.66;;;14.24;100.00
11041;BME280;5573;49.592;8.662;2022-10-22T04:35:46;99607.56;;;14.26;100.00
11041;BME280;5573;49.592;8.662;2022-10-22T04:38:34;99624.03;;;14.37;100.00
11041;BME280;5573;49.592;8.662;2022-10-22T04:41:24;99633.22;;;14.30;100.00
11041;BME280;5573;49.592;8.662;2022-10-22T04:44:12;99628.47;;;14.31;100.00
11041;BME280;5573;49.592;8.662;2022-10-22T04:47:04;99628.56;;;14.20;100.00
11041;BME280;5573;49.592;8.662;2022-10-22T04:49:52;99629.69;;;14.26;100.00
11041;BME280;5573;49.592;8.662;2022-10-22T04:52:41;99634.13;;;14.16;100.00
11041;BME280;5573;49.592;8.662;2022-10-22T04:55:29;99636.00;;;14.27;100.00
11041;BME280;5573;49.592;8.662;2022-10-22T04:58:22;99635.91;;;14.37;100.00
11041;BME280;5573;49.592;8.662;2022-10-22T05:01:11;99642.94;;;14.46;100.00
11041;BME280;5573;49.592;8.662;2022-10-22T05:04:01;99643.69;;;14.46;100.00
11041;BME280;5573;49.592;8.662;2022-10-22T05:06:49;99644.69;;;14.67;100.00
11041;BME280;5573;49.592;8.662;2022-10-22T05:09:39;99643.63;;;14.57;100.00
11041;BME280;5573;49.592;8.662;2022-10-22T05:12:27;99660.28;;;14.50;100.00
11041;BME280;5573;49.592;8.662;2022-10-22T05:15:16;99668.47;;;14.64;100.00
11041;BME280;5573;49.592;8.662;2022-10-22T05:18:04;99663.78;;;14.54;100.00
11041;BME280;5573;49.592;8.662;2022-10-22T05:20:52;99662.22;;;14.56;100.00
11041;BME280;5573;49.592;8.662;2022-10-22T05:23:41;99659.47;;;14.53;100.00
11041;BME280;5573;49.592;8.662;2022-10-22T05:26:30;99658.63;;;14.59;100.00
11041;BME280;5573;49.592;8.662;2022-10-22T05:29:19;99666.53;;;14.61;100.00
11041;BME280;5573;49.592;8.662;2022-10-22T05:32:07;99671.69;;;14.59;100.00
11041;BME280;5573;49.592;8.662;2022-10-22T05:34:55;99670.22;;;14.43;100.00
11041;BME280;5573;49.592;8.662;2022-10-22T05:37:43;99683.63;;;14.49;100.00
11041;BME280;5573;49.592;8.662;2022-10-22T05:40:31;99688.72;;;14.54;100.00
11041;BME280;5573;49.592;8.662;2022-10-22T05:43:20;99691.19;;;14.44;100.00
11041;BME280;5573;49.592;8.662;2022-10-22T05:46:10;99694.31;;;14.47;100.00
11041;BME280;5573;49.592;8.662;2022-10-22T05:48:59;99696.91;;;14.64;100.00
11041;BME280;5573;49.592;8.662;2022-10-22T05:51:48;99703.31;;;14.54;100.00
11041;BME280;5573;49.592;8.662;2022-10-22T05:54:35;99713.53;;;14.64;100.00
11041;BME280;5573;49.592;8.662;2022-10-22T05:57:23;99700.25;;;14.49;100.00
11041;BME280;5573;49.592;8.662;2022-10-22T06:00:14;99709.63;;;14.58;100.00
11041;BME280;5573;49.592;8.662;2022-10-22T06:03:02;99702.66;;;14.43;100.00
11041;BME280;5573;49.592;8.662;2022-10-22T06:05:33;99702.94;;;14.52;100.00
11041;BME280;5573;49.592;8.662;2022-10-22T06:08:01;99711.91;;;14.67;100.00
11041;BME280;5573;49.592;8.662;2022-10-22T06:10:29;99709.91;;;14.71;100.00
11041;BME280;5573;49.592;8.662;2022-10-22T06:12:57;99713.00;;;14.77;100.00
11041;BME280;5573;49.592;8.662;2022-10-22T06:15:28;99726.13;;;14.69;100.00
11041;BME280;5573;49.592;8.662;2022-10-22T06:17:55;99730.00;;;14.79;100.00
11041;BME280;5573;49.592;8.662;2022-10-22T06:20:23;99737.97;;;14.73;100.00
11041;BME280;5573;49.592;8.662;2022-10-22T06:22:51;99735.25;;;14.70;100.00
11041;BME280;5573;49.592;8.662;2022-10-22T06:25:18;99743.22;;;14.60;100.00
11041;BME280;5573;49.592;8.662;2022-10-22T06:27:48;99747.53;;;14.65;100.00
11041;BME280;5573;49.592;8.662;2022-10-22T06:30:17;99747.88;;;14.71;100.00
11041;BME280;5573;49.592;8.662;2022-10-22T06:32:46;99750.13;;;14.83;100.00
11041;BME280;5573;49.592;8.662;2022-10-22T06:35:13;99761.94;;;14.91;100.00
11041;BME280;5573;49.592;8.662;2022-10-22T06:37:41;99763.75;;;15.01;100.00
11041;BME280;5573;49.592;8.662;2022-10-22T06:40:10;99759.59;;;14.86;100.00
11041;BME280;5573;49.592;8.662;2022-10-22T06:42:37;99765.69;;;15.08;100.00
11041;BME280;5573;49.592;8.662;2022-10-22T06:45:07;99781.88;;;15.09;100.00
11041;BME280;5573;49.592;8.662;2022-10-22T06:47:35;99778.28;;;15.16;100.00
11041;BME280;5573;49.592;8.662;2022-10-22T06:50:05;99783.31;;;15.24;100.00
11041;BME280;5573;49.592;8.662;2022-10-22T06:52:33;99787.25;;;15.23;100.00
11041;BME280;5573;49.592;8.662;2022-10-22T06:55:00;99787.25;;;15.23;100.00
11041;BME280;5573;49.592;8.662;2022-10-22T06:57:29;99788.03;;;15.24;100.00
11041;BME280;5573;49.592;8.662;2022-10-22T06:59:56;99799.63;;;15.15;100.00
11041;BME280;5573;49.592;8.662;2022-10-22T07:02:24;99807.56;;;15.13;100.00
11041;BME280;5573;49.592;8.662;2022-10-22T07:04:52;99802.00;;;15.17;100.00
11041;BME280;5573;49.592;8.662;2022-10-22T07:07:21;99806.53;;;15.00;100.00
11041;BME280;5573;49.592;8.662;2022-10-22T07:09:49;99808.84;;;15.05;100.00
11041;BME280;5573;49.592;8.662;2022-10-22T07:12:17;99813.94;;;15.10;100.00
11041;BME280;5573;49.592;8.662;2022-10-22T07:14:44;99812.53;;;15.29;100.00
11041;BME280;5573;49.592;8.662;2022-10-22T07:17:12;99816.94;;;15.27;100.00
11041;BME280;5573;49.592;8.662;2022-10-22T07:19:40;99822.38;;;15.34;100.00
11041;BME280;5573;49.592;8.662;2022-10-22T07:22:07;99821.63;;;15.30;100.00
11041;BME280;5573;49.592;8.662;2022-10-22T07:24:36;99823.53;;;15.36;100.00
11041;BME280;5573;49.592;8.662;2022-10-22T07:27:04;99827.03;;;15.44;100.00
11041;BME280;5573;49.592;8.662;2022-10-22T07:29:36;99825.00;;;15.48;100.00
11041;BME280;5573;49.592;8.662;2022-10-22T07:32:04;99827.28;;;15.53;100.00
11041;BME280;5573;49.592;8.662;2022-10-22T07:34:32;99822.56;;;15.54;100.00
11041;BME280;5573;49.592;8.662;2022-10-22T07:36:59;99823.38;;;15.51;100.00
11041;BME280;5573;49.592;8.662;2022-10-22T07:39:27;99820.56;;;15.54;100.00
11041;BME280;5573;49.592;8.662;2022-10-22T07:41:56;99823.34;;;15.54;100.00
11041;BME280;5573;49.592;8.662;2022-10-22T07:44:24;99816.56;;;15.55;100.00
11041;BME280;5573;49.592;8.662;2022-10-22T07:46:51;99830.91;;;15.50;100.00
11041;BME280;5573;49.592;8.662;2022-10-22T07:49:19;99841.16;;;15.53;100.00
11041;BME280;5573;49.592;8.662;2022-10-22T07:51:47;99853.28;;;15.67;100.00
11041;BME280;5573;49.592;8.662;2022-10-22T07:54:14;99851.66;;;15.73;100.00
11041;BME280;5573;49.592;8.662;2022-10-22T07:56:42;99854.03;;;15.71;100.00
11041;BME280;5573;49.592;8.662;2022-10-22T07:59:11;99853.69;;;15.65;100.00
11041;BME280;5573;49.592;8.662;2022-10-22T08:01:39;99857.66;;;15.64;100.00
11041;BME280;5573;49.592;8.662;2022-10-22T08:04:07;99854.03;;;15.71;100.00
11041;BME280;5573;49.592;8.662;2022-10-22T08:06:35;99857.84;;;15.84;100.00
11041;BME280;5573;49.592;8.662;2022-10-22T08:09:04;99854.69;;;15.82;100.00
11041;BME280;5573;49.592;8.662;2022-10-22T08:11:31;99860.06;;;15.96;100.00
11041;BME280;5573;49.592;8.662;2022-10-22T08:13:59;99858.66;;;16.12;100.00
11041;BME280;5573;49.592;8.662;2022-10-22T08:16:29;99855.91;;;16.08;100.00
11041;BME280;5573;49.592;8.662;2022-10-22T08:18:56;99854.25;;;16.41;100.00
11041;BME280;5573;49.592;8.662;2022-10-22T08:21:25;99857.03;;;16.41;100.00
11041;BME280;5573;49.592;8.662;2022-10-22T08:23:53;99851.38;;;16.49;100.00
11041;BME280;5573;49.592;8.662;2022-10-22T08:26:21;99862.03;;;16.50;100.00
11041;BME280;5573;49.592;8.662;2022-10-22T08:28:48;99866.63;;;16.60;100.00
11041;BME280;5573;49.592;8.662;2022-10-22T08:31:16;99860.91;;;16.71;100.00
11041;BME280;5573;49.592;8.662;2022-10-22T08:33:45;99868.31;;;16.81;100.00
11041;BME280;5573;49.592;8.662;2022-10-22T08:36:13;99870.34;;;16.77;100.00
11041;BME280;5573;49.592;8.662;2022-10-22T08:38:41;99865.28;;;16.96;100.00
11041;BME280;5573;49.592;8.662;2022-10-22T08:41:11;99875.00;;;17.07;100.00
11041;BME280;5573;49.592;8.662;2022-10-22T08:43:46;99878.38;;;17.19;100.00
11041;BME280;5573;49.592;8.662;2022-10-22T08:46:37;99881.56;;;17.17;100.00
11041;BME280;5573;49.592;8.662;2022-10-22T08:49:16;99883.69;;;17.33;100.00
11041;BME280;5573;49.592;8.662;2022-10-22T08:51:45;99885.44;;;17.23;100.00
11041;BME280;5573;49.592;8.662;2022-10-22T08:54:20;99889.00;;;17.24;100.00
11041;BME280;5573;49.592;8.662;2022-10-22T08:57:01;99891.22;;;17.33;100.00
11041;BME280;5573;49.592;8.662;2022-10-22T08:59:35;99888.81;;;17.11;100.00
11041;BME280;5573;49.592;8.662;2022-10-22T09:02:17;99905.97;;;17.30;100.00
11041;BME280;5573;49.592;8.662;2022-10-22T09:04:55;99903.13;;;17.33;100.00
11041;BME280;5573;49.592;8.662;2022-10-22T09:07:25;99910.97;;;17.38;100.00
11041;BME280;5573;49.592;8.662;2022-10-22T09:09:53;99913.56;;;17.49;100.00
11041;BME280;5573;49.592;8.662;2022-10-22T09:12:23;99910.09;;;17.21;100.00
11041;BME280;5573;49.592;8.662;2022-10-22T09:14:51;99916.31;;;17.29;100.00
11041;BME280;5573;49.592;8.662;2022-10-22T09:17:24;99924.34;;;17.23;100.00
11041;BME280;5573;49.592;8.662;2022-10-22T09:20:08;99920.06;;;17.19;100.00
11041;BME280;5573;49.592;8.662;2022-10-22T09:22:45;99922.72;;;17.26;100.00
11041;BME280;5573;49.592;8.662;2022-10-22T09:25:20;99929.84;;;17.27;100.00
11041;BME280;5573;49.592;8.662;2022-10-22T09:27:48;99930.50;;;17.35;100.00
11041;BME280;5573;49.592;8.662;2022-10-22T09:30:20;99920.34;;;17.48;100.00
11041;BME280;5573;49.592;8.662;2022-10-22T09:32:49;99935.81;;;17.49;100.00
11041;BME280;5573;49.592;8.662;2022-10-22T09:35:21;99942.13;;;17.50;100.00
11041;BME280;5573;49.592;8.662;2022-10-22T09:37:51;99933.78;;;17.50;100.00
11041;BME280;5573;49.592;8.662;2022-10-22T09:40:20;99936.63;;;17.70;100.00
11041;BME280;5573;49.592;8.662;2022-10-22T09:42:48;99939.50;;;17.86;100.00
11041;BME280;5573;49.592;8.662;2022-10-22T09:45:22;99932.38;;;17.81;100.00
11041;BME280;5573;49.592;8.662;2022-10-22T09:48:03;99938.81;;;17.78;100.00
11041;BME280;5573;49.592;8.662;2022-10-22T09:50:42;99936.06;;;17.98;100.00
11041;BME280;5573;49.592;8.662;2022-10-22T09:53:13;99933.41;;;18.11;100.00
11041;BME280;5573;49.592;8.662;2022-10-22T09:55:41;99934.63;;;18.10;100.00
11041;BME280;5573;49.592;8.662;2022-10-22T09:58:10;99933.97;;;18.22;100.00
11041;BME280;5573;49.592;8.662;2022-10-22T10:00:39;99940.44;;;18.36;100.00
11041;BME280;5573;49.592;8.662;2022-10-22T10:03:15;99948.28;;;18.41;100.00
11041;BME280;5573;49.592;8.662;2022-10-22T10:05:46;99944.59;;;18.64;100.00
11041;BME280;5573;49.592;8.662;2022-10-22T10:08:16;99948.50;;;18.66;100.00
11041;BME280;5573;49.592;8.662;2022-10-22T10:10:46;99948.63;;;18.79;100.00
11041;BME280;5573;49.592;8.662;2022-10-22T10:13:27;99946.88;;;19.02;100.00
11041;BME280;5573;49.592;8.662;2022-10-22T10:16:06;99945.72;;;18.99;100.00
11041;BME280;5573;49.592;8.662;2022-10-22T10:18:46;99947.75;;;18.99;100.00
11041;BME280;5573;49.592;8.662;2022-10-22T10:21:22;99944.59;;;18.97;100.00
11041;BME280;5573;49.592;8.662;2022-10-22T10:23:56;99940.34;;;18.92;100.00
11041;BME280;5573;49.592;8.662;2022-10-22T10:26:31;99944.66;;;18.60;100.00
11041;BME280;5573;49.592;8.662;2022-10-22T10:29:14;99933.06;;;18.45;100.00
11041;BME280;5573;49.592;8.662;2022-10-22T10:32:02;99932.53;;;18.51;100.00
11041;BME280;5573;49.592;8.662;2022-10-22T10:34:41;99943.78;;;18.63;100.00
11041;BME280;5573;49.592;8.662;2022-10-22T10:37:19;99933.78;;;18.66;100.00
11041;BME280;5573;49.592;8.662;2022-10-22T10:40:03;99937.06;;;18.61;100.00
11041;BME280;5573;49.592;8.662;2022-10-22T10:42:40;99933.25;;;18.71;100.00
11041;BME280;5573;49.592;8.662;2022-10-22T10:45:16;99945.09;;;18.75;100.00
11041;BME280;5573;49.592;8.662;2022-10-22T10:48:03;99949.88;;;18.58;100.00
11041;BME280;5573;49.592;8.662;2022-10-22T10:50:40;99951.81;;;18.78;100.00
11041;BME280;5573;49.592;8.662;2022-10-22T10:53:22;99951.56;;;19.21;100.00
11041;BME280;5573;49.592;8.662;2022-10-22T10:55:56;99936.13;;;19.62;96.21
11041;BME280;5573;49.592;8.662;2022-10-22T10:58:31;99939.94;;;19.39;93.93
11041;BME280;5573;49.592;8.662;2022-10-22T11:01:05;99940.59;;;19.14;96.89
11041;BME280;5573;49.592;8.662;2022-10-22T11:04:04;99937.44;;;19.28;91.08
11041;BME280;5573;49.592;8.662;2022-10-22T11:06:38;99929.25;;;19.38;95.63
11041;BME280;5573;49.592;8.662;2022-10-22T11:09:13;99926.41;;;19.08;96.94
11041;BME280;5573;49.592;8.662;2022-10-22T11:11:48;99935.91;;;19.11;96.70
11041;BME280;5573;49.592;8.662;2022-10-22T11:14:20;99944.75;;;19.39;96.90
11041;BME280;5573;49.592;8.662;2022-10-22T11:16:55;99936.13;;;19.33;93.75
11041;BME280;5573;49.592;8.662;2022-10-22T11:19:31;99937.81;;;19.60;97.34
11041;BME280;5573;49.592;8.662;2022-10-22T11:22:24;99935.63;;;19.67;92.48
11041;BME280;5573;49.592;8.662;2022-10-22T11:24:58;99932.66;;;19.87;90.52
11041;BME280;5573;49.592;8.662;2022-10-22T11:27:30;99935.44;;;20.42;87.04
11041;BME280;5573;49.592;8.662;2022-10-22T11:30:03;99941.78;;;20.30;82.28
11041;BME280;5573;49.592;8.662;2022-10-22T11:32:31;99935.78;;;19.77;86.92
11041;BME280;5573;49.592;8.662;2022-10-22T11:35:02;99934.22;;;19.76;85.83
11041;BME280;5573;49.592;8.662;2022-10-22T11:37:34;99934.16;;;19.63;88.75
11041;BME280;5573;49.592;8.662;2022-10-22T11:40:09;99940.88;;;19.49;92.22
11041;BME280;5573;49.592;8.662;2022-10-22T11:42:44;99933.50;;;19.42;92.00
11041;BME280;5573;49.592;8.662;2022-10-22T11:45:27;99901.09;;;19.32;91.91
11041;BME280;5573;49.592;8.662;2022-10-22T11:47:58;99929.94;;;19.42;93.70
11041;BME280;5573;49.592;8.662;2022-10-22T11:50:48;99919.25;;;19.53;91.24
11041;BME280;5573;49.592;8.662;2022-10-22T11:53:19;99925.03;;;19.75;92.76
11041;BME280;5573;49.592;8.662;2022-10-22T11:55:49;99919.75;;;20.06;88.38
11041;BME280;5573;49.592;8.662;2022-10-22T11:58:32;99914.38;;;19.86;88.13
11041;BME280;5573;49.592;8.662;2022-10-22T12:01:23;99914.50;;;20.08;88.61
11041;BME280;5573;49.592;8.662;2022-10-22T12:06:52;99912.53;;;20.22;84.47
11041;BME280;5573;49.592;8.662;2022-10-22T12:09:22;99915.28;;;20.09;86.52
11041;BME280;5573;49.592;8.662;2022-10-22T12:11:53;99910.72;;;20.15;83.75
11041;BME280;5573;49.592;8.662;2022-10-22T12:14:22;99905.69;;;20.10;84.05
11041;BME280;5573;49.592;8.662;2022-10-22T12:16:54;99916.94;;;19.94;83.74
11041;BME280;5573;49.592;8.662;2022-10-22T12:19:26;99908.47;;;19.97;83.68
11041;BME280;5573;49.592;8.662;2022-10-22T12:21:58;99910.94;;;19.95;83.24
11041;BME280;5573;49.592;8.662;2022-10-22T12:24:30;99910.50;;;19.97;87.93
11041;BME280;5573;49.592;8.662;2022-10-22T12:26:59;99901.22;;;20.00;83.38
11041;BME280;5573;49.592;8.662;2022-10-22T12:29:30;99909.06;;;20.18;83.12
11041;BME280;5573;49.592;8.662;2022-10-22T12:32:01;99904.34;;;20.02;83.63
11041;BME280;5573;49.592;8.662;2022-10-22T12:34:30;99905.16;;;19.73;86.21
11041;BME280;5573;49.592;8.662;2022-10-22T12:36:57;99908.78;;;19.57;91.83
11041;BME280;5573;49.592;8.662;2022-10-22T12:39:26;99907.19;;;19.56;86.73
11041;BME280;5573;49.592;8.662;2022-10-22T12:41:54;99892.13;;;19.54;88.12
11041;BME280;5573;49.592;8.662;2022-10-22T12:44:23;99892.03;;;19.57;85.52
11041;BME280;5573;49.592;8.662;2022-10-22T12:46:51;99881.56;;;19.61;87.54
11041;BME280;5573;49.592;8.662;2022-10-22T12:49:27;99885.69;;;19.57;86.26
11041;BME280;5573;49.592;8.662;2022-10-22T12:51:59;99890.97;;;19.67;88.90
11041;BME280;5573;49.592;8.662;2022-10-22T12:54:31;99896.47;;;19.42;86.75
11041;BME280;5573;49.592;8.662;2022-10-22T12:57:00;99898.16;;;19.52;91.94
11041;BME280;5573;49.592;8.662;2022-10-22T12:59:32;99903.34;;;19.37;93.88
11041;BME280;5573;49.592;8.662;2022-10-22T13:02:01;99903.53;;;19.30;94.63
11041;BME280;5573;49.592;8.662;2022-10-22T13:04:36;99903.22;;;19.12;91.88
11041;BME280;5573;49.592;8.662;2022-10-22T13:07:15;99911.50;;;19.15;92.75
11041;BME280;5573;49.592;8.662;2022-10-22T13:09:56;99909.69;;;19.08;95.76
11041;BME280;5573;49.592;8.662;2022-10-22T13:12:25;99894.53;;;18.93;91.85
11041;BME280;5573;49.592;8.662;2022-10-22T13:14:55;99908.44;;;19.09;93.99
11041;BME280;5573;49.592;8.662;2022-10-22T13:17:37;99913.44;;;19.02;90.94
11041;BME280;5573;49.592;8.662;2022-10-22T13:20:16;99901.47;;;19.01;90.73
11041;BME280;5573;49.592;8.662;2022-10-22T13:22:55;99902.34;;;19.15;93.63
11041;BME280;5573;49.592;8.662;2022-10-22T13:25:27;99902.19;;;19.05;91.60
11041;BME280;5573;49.592;8.662;2022-10-22T13:27:56;99904.84;;;19.25;94.59
11041;BME280;5573;49.592;8.662;2022-10-22T13:30:28;99908.72;;;19.15;93.32
11041;BME280;5573;49.592;8.662;2022-10-22T13:32:58;99824.25;;;18.69;94.79
11041;BME280;5573;49.592;8.662;2022-10-22T13:35:28;99899.44;;;19.18;96.05
11041;BME280;5573;49.592;8.662;2022-10-22T13:37:57;99891.72;;;19.09;98.46
11041;BME280;5573;49.592;8.662;2022-10-22T13:40:26;99900.63;;;19.04;100.00
11041;BME280;5573;49.592;8.662;2022-10-22T13:42:53;99900.28;;;18.86;100.00
11041;BME280;5573;49.592;8.662;2022-10-22T13:45:21;99900.72;;;18.68;100.00
11041;BME280;5573;49.592;8.662;2022-10-22T13:47:52;99895.19;;;18.48;100.00
11041;BME280;5573;49.592;8.662;2022-10-22T13:50:20;99888.03;;;18.31;100.00
11041;BME280;5573;49.592;8.662;2022-10-22T13:52:50;99889.78;;;18.24;100.00
11041;BME280;5573;49.592;8.662;2022-10-22T13:55:21;99896.63;;;18.20;100.00
11041;BME280;5573;49.592;8.662;2022-10-22T13:57:51;99894.56;;;18.40;100.00
11041;BME280;5573;49.592;8.662;2022-10-22T14:00:20;99893.44;;;18.38;100.00
11041;BME280;5573;49.592;8.662;2022-10-22T14:02:52;99895.19;;;18.48;100.00
11041;BME280;5573;49.592;8.662;2022-10-22T14:05:21;99897.81;;;18.39;100.00
11041;BME280;5573;49.592;8.662;2022-10-22T14:07:49;99848.09;;;17.84;100.00
11041;BME280;5573;49.592;8.662;2022-10-22T14:10:20;99897.00;;;18.22;100.00